• Join FlightAware (Why Join?)
  • Login
  • US Flag 
01:13PM EST


 

Airport Tracker/Info


-or-


 

Live Flight TrackerFlight Track Log ✈ RPA4911 ✈ 06-Jul-2013 ✈ KALB - KEWR

Flight Track Log - Related Links

Times and Time Zones

All times are in EDT time to prevent confusion due to time zone crossing. See the RPA4911 flight status page for this flight to view local times or setup timezone preferences in your user account.

Time Position Orientation Groundspeed Altitude Reporting Facility
EDT Latitude Longitude Course Direction KTS MPH feet Rate Location/Type
05:32AM 42.7736 -73.8092 200° South 182 209 1,400  Level Boston Center
05:33AM 42.7769 -73.8742 274° West 214 246 4,000 2,400 Climbing Boston Center
05:34AM 42.7075 -73.9233 207° Southwest 217 250 7,600 2,520 Climbing Boston Center
05:35AM 42.3790 -73.8697 197° South  Level Estimated
05:35AM 42.6447 -73.9361 189° South 222 255 10,200  Level Boston Center
05:36AM 42.3042 -73.9453 217° Southwest  Level FlightAware Approximate
05:36AM 42.5739 -73.9483 187° South 230 265 12,100  Level Boston Center
05:37AM 42.2113 -73.9585 200° South  Level Estimated
05:37AM 42.5028 -73.9664 191° South 271 312 12,100  Level Boston Center
05:38AM 42.4064 -73.9922 191° South 312 359 12,000 -60 Descending Boston Center
05:39AM 42.3228 -74.0125 190° South 334 384 12,000  Level Boston Center
05:40AM 42.2286 -74.0356 190° South 334 384 12,000  Level Boston Center
05:41AM 42.1447 -74.0725 198° South 327 376 12,000  Level Boston Center
05:42AM 42.0631 -74.1094 199° South 318 366 12,000  Level Boston Center
05:43AM 41.9792 -74.1464 198° South 318 366 12,000  Level Boston Center
05:44AM 41.8992 -74.1833 199° South 313 360 12,000  Level Boston Center
05:45AM 41.8111 -74.2172 196° South 313 360 12,000  Level Boston Center
05:46AM 41.7356 -74.2511 199° South 313 360 12,000  Level Boston Center
05:47AM 41.6453 -74.2903 198° South 313 360 12,100 -540 Climbing Boston Center
05:48AM 41.5719 -74.3242 199° South 313 360 11,000 -1,440 Descending Boston Center
05:49AM 41.4878 -74.3606 198° South 301 346 9,300 -1,380 Descending Boston Center
05:51AM 41.3500 -74.4000 192° South 271 312 7,000 -840 Descending New York TRACON
05:52AM 41.2833 -74.3667 159° South 283 326 7,000 -480 Level New York TRACON
05:53AM 41.2167 -74.3167 151° Southeast 277 319 6,100 -960 Descending New York TRACON
05:55AM 41.1233 -74.2901 180° South  Level Estimated
05:55AM 41.0667 -74.2167 180° South 277 319 4,100  Level New York TRACON
05:56AM 41.0000 -74.1667 150° Southeast 271 312 3,600 -600 Descending New York TRACON
05:57AM 40.9333 -74.1167 150° Southeast 270 311 3,000 -300 Descending New York TRACON
05:58AM 40.8833 -74.0833 153° Southeast 205 236 3,000 -240 Level New York TRACON
05:59AM 40.8333 -74.0667 166° South 198 228 2,600 -480 Descending New York TRACON